Time,TemperatureF,DewpointF,PressureIn,WindDirection,WindDirectionDegrees,WindSpeedMPH,WindSpeedGustMPH,Humidity,HourlyPrecipIn,Conditions,Clouds,dailyrainin,SoftwareType,DateUTC
2013-05-23 00:14:00,57.1,43.0,29.88,SSE,153,4.0,19.0,59,0.00,,,0.00,weatherlink.com 1.10,2013-05-23 06:14:00,
2013-05-23 00:29:00,56.8,43.0,29.87,ENE,64,2.0,8.0,60,0.00,,,0.00,weatherlink.com 1.10,2013-05-23 06:29:00,
2013-05-23 00:44:00,56.4,43.0,29.86,ENE,70,10.0,12.0,61,0.00,,,0.00,weatherlink.com 1.10,2013-05-23 06:44:00,
2013-05-23 00:59:00,56.4,43.0,29.85,ENE,77,6.0,12.0,62,0.00,,,0.00,weatherlink.com 1.10,2013-05-23 06:59:00,
2013-05-23 01:14:00,56.4,44.0,29.84,East,80,9.0,14.0,63,0.00,,,0.00,weatherlink.com 1.10,2013-05-23 07:14:00,
2013-05-23 01:29:00,56.4,44.0,29.86,ESE,113,1.0,11.0,63,0.00,,,0.00,weatherlink.com 1.10,2013-05-23 07:29:00,
2013-05-23 01:44:00,56.4,44.0,29.86,NE,37,4.0,10.0,63,0.00,,,0.00,weatherlink.com 1.10,2013-05-23 07:44:00,
2013-05-23 01:59:00,56.5,44.0,29.87,ENE,63,5.0,10.0,63,0.00,,,0.00,weatherlink.com 1.10,2013-05-23 07:59:00,
2013-05-23 02:14:00,56.4,44.0,29.86,East,101,7.0,11.0,64,0.00,,,0.00,weatherlink.com 1.10,2013-05-23 08:14:00,
2013-05-23 02:29:00,56.2,44.0,29.86,SE,127,6.0,11.0,65,0.00,,,0.00,weatherlink.com 1.10,2013-05-23 08:29:00,
2013-05-23 02:44:00,56.2,44.0,29.84,East,93,5.0,12.0,65,0.00,,,0.00,weatherlink.com 1.10,2013-05-23 08:44:00,
2013-05-23 02:59:00,55.9,45.0,29.84,NE,36,9.0,14.0,66,0.00,,,0.00,weatherlink.com 1.10,2013-05-23 08:59:00,
2013-05-23 03:14:00,55.7,44.0,29.84,ESE,105,5.0,11.0,66,0.00,,,0.00,weatherlink.com 1.10,2013-05-23 09:14:00,
2013-05-23 03:29:00,55.3,44.0,29.84,ENE,59,6.0,9.0,67,0.00,,,0.00,weatherlink.com 1.10,2013-05-23 09:29:00,
2013-05-23 03:44:00,55.1,44.0,29.83,ENE,60,3.0,13.0,67,0.00,,,0.00,weatherlink.com 1.10,2013-05-23 09:44:00,
2013-05-23 03:59:00,55.1,44.0,29.83,ESE,110,7.0,15.0,67,0.00,,,0.00,weatherlink.com 1.10,2013-05-23 09:59:00,
2013-05-23 04:14:00,55.2,44.0,29.82,ESE,113,3.0,15.0,66,0.00,,,0.00,weatherlink.com 1.10,2013-05-23 10:14:00,
2013-05-23 04:29:00,54.9,44.0,29.82,SE,141,3.0,15.0,66,0.00,,,0.00,weatherlink.com 1.10,2013-05-23 10:29:00,
2013-05-23 04:44:00,54.6,44.0,29.82,SSE,149,1.0,15.0,67,0.00,,,0.00,weatherlink.com 1.10,2013-05-23 10:44:00,
2013-05-23 04:59:00,54.4,44.0,29.82,East,89,5.0,15.0,68,0.00,,,0.00,weatherlink.com 1.10,2013-05-23 10:59:00,
2013-05-23 05:14:00,54.4,44.0,29.82,East,101,8.0,10.0,68,0.00,,,0.00,weatherlink.com 1.10,2013-05-23 11:14:00,
2013-05-23 05:29:00,54.4,44.0,29.82,ESE,123,6.0,9.0,69,0.00,,,0.00,weatherlink.com 1.10,2013-05-23 11:29:00,
2013-05-23 05:44:00,54.5,44.0,29.82,East,84,5.0,9.0,69,0.00,,,0.00,weatherlink.com 1.10,2013-05-23 11:44:00,
2013-05-23 05:59:00,54.7,44.0,29.82,South,183,4.0,16.0,67,0.00,,,0.00,weatherlink.com 1.10,2013-05-23 11:59:00,
2013-05-23 06:14:00,55.3,44.0,29.82,ESE,113,11.0,19.0,66,0.00,,,0.00,weatherlink.com 1.10,2013-05-23 12:14:00,
2013-05-23 06:29:00,55.5,44.0,29.83,SE,133,8.0,12.0,65,0.00,,,0.00,weatherlink.com 1.10,2013-05-23 12:29:00,
2013-05-23 06:44:00,55.9,44.0,29.82,ESE,117,7.0,23.0,64,0.00,,,0.00,weatherlink.com 1.10,2013-05-23 12:44:00,
2013-05-23 06:59:00,56.0,44.0,29.79,SSE,148,11.0,26.0,64,0.00,,,0.00,weatherlink.com 1.10,2013-05-23 12:59:00,
2013-05-23 07:14:00,56.1,44.0,29.79,SSE,158,12.0,28.0,64,0.00,,,0.00,weatherlink.com 1.10,2013-05-23 13:14:00,
2013-05-23 07:30:00,56.2,44.0,29.79,ESE,110,22.0,22.0,64,0.00,,,0.00,weatherlink.com 1.10,2013-05-23 13:30:00,
2013-05-23 07:45:00,56.4,44.0,29.79,SE,143,8.0,19.0,64,0.00,,,0.00,weatherlink.com 1.10,2013-05-23 13:45:00,
2013-05-23 08:00:00,56.6,44.0,29.80,ESE,105,12.0,18.0,64,0.00,,,0.00,weatherlink.com 1.10,2013-05-23 14:00:00,
2013-05-23 08:15:00,57.0,44.0,29.79,SE,134,23.0,26.0,63,0.00,,,0.00,weatherlink.com 1.10,2013-05-23 14:15:00,
2013-05-23 08:30:00,57.2,45.0,29.79,SE,139,10.0,25.0,64,0.00,,,0.00,weatherlink.com 1.10,2013-05-23 14:30:00,
2013-05-23 08:45:00,57.1,44.0,29.79,East,98,10.0,27.0,63,0.00,,,0.00,weatherlink.com 1.10,2013-05-23 14:45:00,
2013-05-23 09:00:00,57.1,45.0,29.79,SE,143,22.0,29.0,64,0.00,,,0.00,weatherlink.com 1.10,2013-05-23 15:00:00,
2013-05-23 09:15:00,57.3,45.0,29.79,SSE,149,13.0,25.0,63,0.00,,,0.00,weatherlink.com 1.10,2013-05-23 15:15:00,
2013-05-23 09:30:00,57.5,45.0,29.78,SE,142,13.0,29.0,63,0.00,,,0.00,weatherlink.com 1.10,2013-05-23 15:30:00,
2013-05-23 09:45:00,57.8,45.0,29.78,SE,146,20.0,31.0,62,0.00,,,0.00,weatherlink.com 1.10,2013-05-23 15:45:00,
2013-05-23 10:00:00,58.9,46.0,29.78,SE,130,17.0,30.0,63,0.00,,,0.00,weatherlink.com 1.10,2013-05-23 16:00:00,
2013-05-23 10:15:00,59.5,46.0,29.78,SSE,150,28.0,29.0,61,0.00,,,0.00,weatherlink.com 1.10,2013-05-23 16:15:00,
2013-05-23 10:30:00,59.3,46.0,29.77,ESE,113,25.0,28.0,62,0.00,,,0.00,weatherlink.com 1.10,2013-05-23 16:30:00,
2013-05-23 10:45:00,59.1,45.0,29.77,SE,138,20.0,29.0,61,0.00,,,0.00,weatherlink.com 1.10,2013-05-23 16:45:00,
2013-05-23 11:00:00,59.5,46.0,29.77,SSE,149,22.0,27.0,62,0.00,,,0.00,weatherlink.com 1.10,2013-05-23 17:00:00,
2013-05-23 11:15:00,59.7,46.0,29.77,SSE,151,25.0,27.0,62,0.00,,,0.00,weatherlink.com 1.10,2013-05-23 17:15:00,
2013-05-23 11:30:00,60.3,47.0,29.76,SE,137,19.0,25.0,62,0.00,,,0.00,weatherlink.com 1.10,2013-05-23 17:30:00,
2013-05-23 11:45:00,61.5,49.0,29.76,South,169,7.0,19.0,63,0.00,,,0.00,weatherlink.com 1.10,2013-05-23 17:45:00,
2013-05-23 12:00:00,62.7,48.0,29.76,SE,142,6.0,21.0,60,0.00,,,0.00,weatherlink.com 1.10,2013-05-23 18:00:00,
2013-05-23 12:15:00,63.2,47.0,29.75,SSE,157,21.0,23.0,56,0.00,,,0.00,weatherlink.com 1.10,2013-05-23 18:15:00,
2013-05-23 12:30:00,63.6,47.0,29.75,SE,141,12.0,26.0,56,0.00,,,0.00,weatherlink.com 1.10,2013-05-23 18:30:00,
2013-05-23 12:45:00,64.5,49.0,29.75,SE,130,7.0,21.0,57,0.00,,,0.00,weatherlink.com 1.10,2013-05-23 18:45:00,
2013-05-23 13:00:00,64.9,48.0,29.74,ENE,77,9.0,22.0,55,0.00,,,0.00,weatherlink.com 1.10,2013-05-23 19:00:00,
2013-05-23 13:15:00,65.2,48.0,29.74,SE,135,11.0,21.0,54,0.00,,,0.00,weatherlink.com 1.10,2013-05-23 19:15:00,
2013-05-23 13:30:00,65.8,49.0,29.73,SE,128,9.0,21.0,55,0.00,,,0.00,weatherlink.com 1.10,2013-05-23 19:30:00,
2013-05-23 13:45:00,66.1,49.0,29.73,SE,126,6.0,21.0,55,0.00,,,0.00,weatherlink.com 1.10,2013-05-23 19:45:00,
2013-05-23 14:00:00,65.4,48.0,29.73,SE,143,14.0,21.0,53,0.00,,,0.00,weatherlink.com 1.10,2013-05-23 20:00:00,
2013-05-23 14:15:00,66.6,49.0,29.72,SSE,156,14.0,18.0,54,0.00,,,0.00,weatherlink.com 1.10,2013-05-23 20:15:00,
2013-05-23 14:30:00,66.7,49.0,29.72,ESE,103,8.0,21.0,53,0.00,,,0.00,weatherlink.com 1.10,2013-05-23 20:30:00,
2013-05-23 14:45:00,66.8,48.0,29.71,ESE,115,7.0,21.0,52,0.00,,,0.00,weatherlink.com 1.10,2013-05-23 20:45:00,
2013-05-23 15:01:00,68.2,51.0,29.70,SE,137,11.0,18.0,54,0.00,,,0.00,weatherlink.com 1.10,2013-05-23 21:01:00,
2013-05-23 15:16:00,67.6,49.0,29.70,ESE,104,7.0,19.0,52,0.00,,,0.00,weatherlink.com 1.10,2013-05-23 21:16:00,
2013-05-23 15:31:00,67.2,49.0,29.69,ESE,123,7.0,21.0,53,0.00,,,0.00,weatherlink.com 1.10,2013-05-23 21:31:00,
2013-05-23 15:46:00,68.0,50.0,29.69,ESE,122,9.0,18.0,52,0.00,,,0.00,weatherlink.com 1.10,2013-05-23 21:46:00,
2013-05-23 16:01:00,68.3,48.0,29.68,SE,143,10.0,18.0,49,0.00,,,0.00,weatherlink.com 1.10,2013-05-23 22:01:00,
2013-05-23 16:16:00,68.7,50.0,29.67,East,91,9.0,22.0,51,0.00,,,0.00,weatherlink.com 1.10,2013-05-23 22:16:00,
2013-05-23 16:31:00,69.3,49.0,29.66,ESE,114,6.0,22.0,49,0.00,,,0.00,weatherlink.com 1.10,2013-05-23 22:31:00,
2013-05-23 16:46:00,69.7,49.0,29.66,ENE,69,11.0,19.0,48,0.00,,,0.00,weatherlink.com 1.10,2013-05-23 22:46:00,
2013-05-23 17:01:00,70.8,50.0,29.65,ENE,70,8.0,16.0,48,0.00,,,0.00,weatherlink.com 1.10,2013-05-23 23:01:00,
2013-05-23 17:16:00,69.7,50.0,29.65,East,90,12.0,22.0,49,0.00,,,0.00,weatherlink.com 1.10,2013-05-23 23:16:00,
2013-05-23 17:31:00,70.2,51.0,29.64,SE,136,6.0,13.0,50,0.00,,,0.00,weatherlink.com 1.10,2013-05-23 23:31:00,
2013-05-23 17:46:00,70.2,48.0,29.64,SSE,153,4.0,16.0,46,0.00,,,0.00,weatherlink.com 1.10,2013-05-23 23:46:00,
2013-05-23 18:01:00,70.7,50.0,29.63,ENE,61,8.0,12.0,49,0.00,,,0.00,weatherlink.com 1.10,2013-05-24 00:01:00,
2013-05-23 18:16:00,70.7,49.0,29.62,ENE,68,5.0,11.0,47,0.00,,,0.00,weatherlink.com 1.10,2013-05-24 00:16:00,
2013-05-23 18:46:00,70.6,50.0,29.61,SE,141,4.0,10.0,48,0.00,,,0.00,weatherlink.com 1.10,2013-05-24 00:46:00,
2013-05-23 19:01:00,70.7,50.0,29.62,NNE,13,4.0,8.0,48,0.00,,,0.00,weatherlink.com 1.10,2013-05-24 01:01:00,
2013-05-23 19:16:00,70.3,50.0,29.62,ENE,60,2.0,4.0,48,0.00,,,0.00,weatherlink.com 1.10,2013-05-24 01:16:00,
2013-05-23 19:31:00,69.7,50.0,29.57,East,84,10.0,14.0,50,0.00,,,0.00,weatherlink.com 1.10,2013-05-24 01:31:00,
2013-05-23 19:46:00,69.2,51.0,29.61,ESE,123,2.0,10.0,52,0.00,,,0.00,weatherlink.com 1.10,2013-05-24 01:46:00,
2013-05-23 20:01:00,69.1,50.0,29.61,ENE,72,2.0,5.0,51,0.00,,,0.00,weatherlink.com 1.10,2013-05-24 02:01:00,
2013-05-23 20:16:00,68.6,50.0,29.61,ENE,70,5.0,6.0,52,0.00,,,0.00,weatherlink.com 1.10,2013-05-24 02:16:00,
2013-05-23 20:31:00,68.6,50.0,29.58,East,79,8.0,17.0,52,0.00,,,0.00,weatherlink.com 1.10,2013-05-24 02:31:00,
2013-05-23 20:46:00,67.4,51.0,29.56,ENE,67,7.0,10.0,55,0.00,,,0.00,weatherlink.com 1.10,2013-05-24 02:46:00,
2013-05-23 21:01:00,67.7,50.0,29.59,ENE,73,7.0,11.0,53,0.00,,,0.00,weatherlink.com 1.10,2013-05-24 03:01:00,
2013-05-23 21:16:00,68.0,50.0,29.58,ENE,68,8.0,8.0,52,0.00,,,0.00,weatherlink.com 1.10,2013-05-24 03:16:00,
2013-05-23 21:31:00,67.5,49.0,29.57,East,83,5.0,18.0,52,0.00,,,0.00,weatherlink.com 1.10,2013-05-24 03:31:00,
2013-05-23 21:46:00,67.1,49.0,29.58,ENE,73,6.0,12.0,52,0.00,,,0.00,weatherlink.com 1.10,2013-05-24 03:46:00,
2013-05-23 22:01:00,66.8,49.0,29.59,ENE,65,3.0,7.0,53,0.00,,,0.00,weatherlink.com 1.10,2013-05-24 04:01:00,
2013-05-23 22:16:00,66.6,49.0,29.58,ENE,74,5.0,10.0,53,0.00,,,0.00,weatherlink.com 1.10,2013-05-24 04:16:00,
2013-05-23 22:31:00,65.6,49.0,29.58,East,89,2.0,11.0,55,0.00,,,0.00,weatherlink.com 1.10,2013-05-24 04:31:00,
2013-05-23 22:46:00,64.7,49.0,29.59,ENE,66,6.0,8.0,57,0.00,,,0.00,weatherlink.com 1.10,2013-05-24 04:46:00,
2013-05-23 23:01:00,64.3,49.0,29.59,ENE,68,5.0,6.0,58,0.00,,,0.00,weatherlink.com 1.10,2013-05-24 05:01:00,
2013-05-23 23:16:00,63.5,49.0,29.59,NE,35,7.0,8.0,60,0.00,,,0.00,weatherlink.com 1.10,2013-05-24 05:16:00,
2013-05-23 23:31:00,63.1,49.0,29.59,East,85,4.0,8.0,60,0.00,,,0.00,weatherlink.com 1.10,2013-05-24 05:31:00,
2013-05-23 23:46:00,62.1,49.0,29.58,ENE,74,7.0,7.0,63,0.00,,,0.00,weatherlink.com 1.10,2013-05-24 05:46:00,